Time;durP1;ratioP1;P1;durP2;ratioP2;P2;SDS_P1;SDS_P2;PMS_P1;PMS_P2;Temp;Humidity;BMP_temperature;BMP_pressure;BME280_temperature;BME280_humidity;BME280_pressure;Samples;Min_cycle;Max_cycle;Signal;HPM_P1;HPM_P2
2023/12/16 00:01:44;;;;;;;3.50;1.77;;;19.90;49.10;;;;;;5051099;28;20041;-27
2023/12/16 00:04:11;;;;;;;4.32;1.88;;;19.80;63.30;;;;;;5051637;28;20056;-25
2023/12/16 00:06:37;;;;;;;3.67;1.80;;;20.20;63.60;;;;;;5066600;28;20044;-30
2023/12/16 00:09:05;;;;;;;3.67;1.80;;;;;;;;;;5071461;28;20048;-28
2023/12/16 00:11:31;;;;;;;4.50;1.60;;;20.00;67.10;;;;;;5066408;28;20094;-31
2023/12/16 00:13:59;;;;;;;3.08;1.60;;;;;;;;;;5071304;28;20056;-25
2023/12/16 00:16:26;;;;;;;2.97;1.70;;;20.20;68.90;;;;;;5070838;28;20056;-26
2023/12/16 00:18:54;;;;;;;5.25;2.05;;;19.50;60.70;;;;;;5065765;28;20045;-25
2023/12/16 00:21:21;;;;;;;3.50;1.70;;;19.30;67.70;;;;;;5064395;28;20044;-26
2023/12/16 00:23:48;;;;;;;3.90;1.63;;;19.40;68.90;;;;;;5071236;28;20118;-28
2023/12/16 00:26:15;;;;;;;3.35;1.55;;;;;;;;;;5071419;28;20048;-28
2023/12/16 00:28:42;;;;;;;3.92;1.75;;;;;;;;;;5070870;28;20052;-25
2023/12/16 00:31:09;;;;;;;5.18;1.88;;;19.50;52.10;;;;;;5057222;28;20045;-26
2023/12/16 00:33:36;;;;;;;3.42;1.70;;;19.30;68.40;;;;;;5051467;28;20095;-28
2023/12/16 00:36:05;;;;;;;3.13;1.65;;;20.90;69.20;;;;;;5052246;28;20057;-29
2023/12/16 00:38:32;;;;;;;3.22;1.60;;;18.60;61.90;;;;;;5071158;28;20044;-25
2023/12/16 00:40:58;;;;;;;2.78;1.58;;;19.80;69.30;;;;;;5070842;28;20113;-25
2023/12/16 00:43:26;;;;;;;4.10;1.52;;;;;;;;;;5071090;28;20056;-26
2023/12/16 00:45:53;;;;;;;2.80;1.70;;;;;;;;;;5053264;28;20049;-26
2023/12/16 00:48:20;;;;;;;2.92;1.65;;;;;;;;;;5052483;28;20049;-26
2023/12/16 00:50:47;;;;;;;2.88;1.65;;;19.70;69.40;;;;;;5054570;28;20045;-25
2023/12/16 00:53:15;;;;;;;2.67;1.77;;;19.50;49.20;;;;;;5054695;28;20446;-27
2023/12/16 00:55:42;;;;;;;3.63;1.50;;;;;;;;;;5037039;28;20061;-26
2023/12/16 00:58:10;;;;;;;2.45;1.60;;;18.50;68.70;;;;;;5054420;28;20052;-25
2023/12/16 01:00:36;;;;;;;3.35;1.50;;;19.20;69.00;;;;;;5058899;28;20529;-25
2023/12/16 01:03:04;;;;;;;2.38;1.63;;;19.50;49.30;;;;;;5074586;28;20066;-30
2023/12/16 01:05:31;;;;;;;3.95;1.70;;;18.90;69.20;;;;;;5068133;28;20124;-33
2023/12/16 01:07:58;;;;;;;4.55;1.85;;;;;;;;;;5054523;28;20057;-30
2023/12/16 01:10:26;;;;;;;3.00;1.55;;;18.20;68.40;;;;;;5054025;28;20088;-27
2023/12/16 01:12:53;;;;;;;4.78;1.80;;;19.00;69.20;;;;;;5058257;28;20063;-30
2023/12/16 01:15:20;;;;;;;3.80;1.50;;;19.40;53.70;;;;;;5058979;28;20115;-29
2023/12/16 01:17:47;;;;;;;3.72;1.60;;;20.00;69.30;;;;;;5054262;28;20430;-29
2023/12/16 01:20:15;;;;;;;2.50;1.50;;;19.70;66.60;;;;;;5053815;28;20056;-25
2023/12/16 01:22:42;;;;;;;2.50;1.50;;;19.30;69.10;;;;;;5054120;28;20110;-25
2023/12/16 01:25:09;;;;;;;3.13;1.63;;;19.30;49.30;;;;;;5054010;28;20049;-26
2023/12/16 01:27:37;;;;;;;2.75;1.58;;;18.70;68.50;;;;;;5054152;28;20099;-26
2023/12/16 01:30:05;;;;;;;2.85;1.42;;;18.90;68.70;;;;;;5053833;28;20544;-25
2023/12/16 01:32:32;;;;;;;2.65;1.52;;;18.80;69.20;;;;;;5053933;28;20118;-25
2023/12/16 01:34:59;;;;;;;3.70;1.77;;;19.10;69.00;;;;;;5053911;28;20049;-25
2023/12/16 01:37:26;;;;;;;6.55;2.00;;;;;;;;;;5066256;28;20501;-26
2023/12/16 01:39:53;;;;;;;3.92;1.80;;;;;;;;;;5073741;28;20048;-27
2023/12/16 01:42:19;;;;;;;3.08;1.67;;;18.90;69.40;;;;;;5062320;28;20104;-25
2023/12/16 01:44:47;;;;;;;3.30;1.60;;;19.50;69.80;;;;;;5053817;28;20053;-26
2023/12/16 01:47:15;;;;;;;2.70;1.63;;;19.40;65.10;;;;;;5053802;28;20171;-26
2023/12/16 01:49:42;;;;;;;5.38;1.40;;;19.30;69.70;;;;;;5053481;28;20049;-25
2023/12/16 01:52:09;;;;;;;2.78;1.70;;;19.00;69.50;;;;;;5053589;28;20049;-26
2023/12/16 01:54:36;;;;;;;2.22;1.30;;;20.40;60.80;;;;;;5053485;28;20469;-27
2023/12/16 01:57:04;;;;;;;3.10;1.60;;;18.70;69.50;;;;;;5053779;28;20072;-29
2023/12/16 01:59:31;;;;;;;2.72;1.50;;;18.90;69.70;;;;;;5052903;28;20045;-27
2023/12/16 02:01:59;;;;;;;2.83;1.45;;;18.90;55.00;;;;;;5053173;28;20460;-27
2023/12/16 02:04:26;;;;;;;2.75;1.70;;;18.90;61.20;;;;;;5053298;28;20049;-28
2023/12/16 02:06:53;;;;;;;2.80;1.42;;;;;;;;;;5070866;28;20109;-26
2023/12/16 02:09:21;;;;;;;3.42;1.75;;;;;;;;;;5073529;28;20052;-25
2023/12/16 02:11:48;;;;;;;2.55;1.33;;;18.70;49.20;;;;;;5070705;28;20079;-26
2023/12/16 02:14:15;;;;;;;4.22;1.45;;;18.80;69.70;;;;;;5072999;28;20493;-32
2023/12/16 02:16:42;;;;;;;4.10;1.77;;;19.10;49.50;;;;;;5073176;28;20052;-29
2023/12/16 02:19:12;;;;;;;3.72;1.50;;;19.00;69.90;;;;;;5073042;28;20059;-31
2023/12/16 02:21:39;;;;;;;2.42;1.48;;;18.60;66.70;;;;;;5072895;28;20076;-27
2023/12/16 02:24:08;;;;;;;2.50;1.25;;;19.50;70.10;;;;;;5070804;28;20044;-31
2023/12/16 02:26:35;;;;;;;3.75;1.92;;;;;;;;;;5053148;28;20053;-26
2023/12/16 02:29:02;;;;;;;3.08;1.63;;;18.60;69.30;;;;;;5052817;28;20044;-31
2023/12/16 02:31:29;;;;;;;2.63;1.45;;;;;;;;;;5052615;28;20494;-27
2023/12/16 02:33:56;;;;;;;3.67;1.45;;;19.30;70.00;;;;;;5052736;28;20132;-28
2023/12/16 02:36:23;;;;;;;4.90;1.65;;;;;;;;;;5056431;28;20102;-27
2023/12/16 02:38:50;;;;;;;2.83;1.50;;;;;;;;;;5067111;28;20103;-28
2023/12/16 02:41:21;;;;;;;2.90;1.35;;;18.90;59.70;;;;;;5052261;28;20498;-28
2023/12/16 02:43:47;;;;;;;2.60;1.58;;;18.60;50.50;;;;;;5052718;28;20056;-30
2023/12/16 02:46:14;;;;;;;2.28;1.38;;;18.80;62.40;;;;;;5052525;28;20075;-32
2023/12/16 02:48:42;;;;;;;2.58;1.50;;;;;;;;;;5070607;28;20550;-27
2023/12/16 02:51:17;;;;;;;2.92;1.52;;;18.90;49.50;;;;;;5072579;28;20063;-31
2023/12/16 02:53:44;;;;;;;3.15;1.58;;;18.60;69.00;;;;;;5072052;28;20048;-25
2023/12/16 02:56:11;;;;;;;2.60;1.33;;;19.10;55.20;;;;;;5072240;28;20459;-24
2023/12/16 02:58:39;;;;;;;3.42;1.55;;;18.90;49.50;;;;;;5072294;28;20406;-26
2023/12/16 03:01:07;;;;;;;2.63;1.40;;;18.80;66.10;;;;;;5072357;28;20110;-25
2023/12/16 03:03:34;;;;;;;4.88;1.83;;;;;;;;;;5072269;28;20048;-27
2023/12/16 03:06:05;;;;;;;3.40;1.30;;;20.00;69.50;;;;;;5061643;28;20049;-26
2023/12/16 03:08:32;;;;;;;2.67;1.60;;;;;;;;;;5053320;28;20457;-27
2023/12/16 03:10:59;;;;;;;3.17;1.27;;;19.20;60.10;;;;;;5051761;28;20468;-25
2023/12/16 03:13:26;;;;;;;3.78;1.60;;;18.10;64.40;;;;;;5052080;28;20522;-26
2023/12/16 03:15:55;;;;;;;1.90;1.20;;;19.00;70.10;;;;;;5052009;28;20060;-27
2023/12/16 03:18:21;;;;;;;2.50;1.25;;;18.60;69.50;;;;;;5051943;28;20517;-26
2023/12/16 03:20:49;;;;;;;4.25;1.60;;;18.70;56.10;;;;;;5051678;28;20148;-26
2023/12/16 03:23:15;;;;;;;3.53;1.50;;;18.90;69.70;;;;;;5052065;28;20049;-25
2023/12/16 03:25:43;;;;;;;2.78;1.30;;;;;;;;;;5051882;28;20045;-27
2023/12/16 03:28:10;;;;;;;3.35;1.42;;;;;;;;;;5051566;28;20145;-29
2023/12/16 03:30:39;;;;;;;3.08;1.65;;;19.50;70.30;;;;;;5051784;28;20169;-31
2023/12/16 03:33:07;;;;;;;2.22;1.30;;;18.50;69.70;;;;;;5051915;28;20102;-30
2023/12/16 03:35:34;;;;;;;3.80;1.30;;;19.70;70.10;;;;;;5051888;28;20098;-30
2023/12/16 03:38:01;;;;;;;2.42;1.40;;;;;;;;;;5068197;28;20102;-28
2023/12/16 03:40:29;;;;;;;2.72;1.48;;;;;;;;;;5071404;28;20056;-28
2023/12/16 03:42:56;;;;;;;3.80;1.48;;;18.80;70.00;;;;;;5071924;28;20048;-25
2023/12/16 03:45:23;;;;;;;3.30;1.35;;;18.50;60.30;;;;;;5071776;28;20456;-26
2023/12/16 03:47:51;;;;;;;3.72;1.60;;;19.10;70.10;;;;;;5071538;28;20044;-26
2023/12/16 03:50:19;;;;;;;3.50;1.55;;;17.90;69.50;;;;;;5071265;28;20083;-25
2023/12/16 03:52:46;;;;;;;2.90;1.40;;;19.00;69.70;;;;;;5071681;28;20462;-24
2023/12/16 03:55:13;;;;;;;2.65;1.40;;;;;;;;;;5062737;28;20110;-27
2023/12/16 03:57:40;;;;;;;3.47;1.40;;;19.50;60.50;;;;;;5051733;28;20056;-24
2023/12/16 04:00:09;;;;;;;2.50;1.60;;;17.90;69.40;;;;;;5051324;28;20600;-24
2023/12/16 04:02:36;;;;;;;3.25;1.40;;;;;;;;;;5054027;28;20142;-25
2023/12/16 04:05:03;;;;;;;2.03;1.23;;;19.20;64.50;;;;;;5069089;28;20052;-24
2023/12/16 04:07:31;;;;;;;2.45;1.40;;;20.10;64.70;;;;;;5051267;28;20052;-25
2023/12/16 04:09:59;;;;;;;2.67;1.30;;;19.00;69.90;;;;;;5051201;28;20072;-24
2023/12/16 04:12:26;;;;;;;2.90;1.55;;;18.70;69.20;;;;;;5055403;28;20053;-26
2023/12/16 04:14:53;;;;;;;2.13;1.20;;;20.10;69.90;;;;;;5071181;28;20102;-25
2023/12/16 04:17:20;;;;;;;2.55;1.33;;;17.90;64.40;;;;;;5071145;28;20473;-26
2023/12/16 04:19:51;;;;;;;2.83;1.30;;;19.00;49.30;;;;;;5071408;28;20555;-25
2023/12/16 04:22:18;;;;;;;2.30;1.40;;;18.50;69.30;;;;;;5071023;28;20153;-26
2023/12/16 04:24:46;;;;;;;4.00;1.70;;;18.90;69.40;;;;;;5075019;28;20129;-26
2023/12/16 04:27:13;;;;;;;2.97;1.23;;;18.50;56.60;;;;;;5074111;28;20049;-25
2023/12/16 04:29:40;;;;;;;2.60;1.30;;;19.40;69.70;;;;;;5075095;28;20049;-25
2023/12/16 04:32:07;;;;;;;3.63;1.70;;;19.10;54.20;;;;;;5058552;28;20548;-26
2023/12/16 04:34:34;;;;;;;2.80;1.45;;;19.00;69.10;;;;;;5071786;28;21551;-25
2023/12/16 04:37:01;;;;;;;2.90;1.40;;;19.80;64.40;;;;;;5074550;28;20497;-26
2023/12/16 04:39:28;;;;;;;2.53;1.40;;;19.10;69.10;;;;;;5074986;28;20102;-26
2023/12/16 04:41:56;;;;;;;2.25;1.33;;;19.20;49.10;;;;;;5074692;28;20048;-26
2023/12/16 04:44:23;;;;;;;2.25;1.50;;;;;;;;;;5074214;28;20036;-27
2023/12/16 04:46:50;;;;;;;2.30;1.35;;;19.20;69.00;;;;;;5074680;28;20048;-25
2023/12/16 04:49:17;;;;;;;3.25;1.52;;;;;;;;;;5074761;28;20090;-27
2023/12/16 04:51:44;;;;;;;3.17;1.35;;;18.70;68.90;;;;;;5061321;28;20041;-25
2023/12/16 04:54:11;;;;;;;2.67;1.50;;;19.70;69.50;;;;;;5054768;28;20122;-25
2023/12/16 04:56:37;;;;;;;2.72;1.35;;;19.50;57.90;;;;;;5054736;28;20106;-28
2023/12/16 04:59:06;;;;;;;2.63;1.40;;;19.20;69.10;;;;;;5058722;28;20044;-30
2023/12/16 05:01:33;;;;;;;3.15;1.30;;;19.80;69.40;;;;;;5066222;28;20051;-23
2023/12/16 05:03:59;;;;;;;2.65;1.50;;;19.40;57.60;;;;;;5054383;28;20057;-27
2023/12/16 05:06:26;;;;;;;3.45;1.40;;;18.40;49.60;;;;;;5068821;28;20053;-24
2023/12/16 05:08:54;;;;;;;3.25;1.92;;;;;;;;;;5063936;28;20049;-28
2023/12/16 05:11:20;;;;;;;3.78;1.35;;;19.40;68.90;;;;;;5054332;28;20044;-25
2023/12/16 05:13:47;;;;;;;2.10;1.20;;;18.80;68.20;;;;;;5054484;28;20053;-24
2023/12/16 05:16:19;;;;;;;2.17;1.30;;;20.10;69.10;;;;;;5054063;28;20123;-26
2023/12/16 05:18:46;;;;;;;3.58;1.45;;;19.30;66.20;;;;;;5055518;28;20049;-25
2023/12/16 05:21:13;;;;;;;3.80;1.40;;;20.10;68.70;;;;;;5070348;28;20044;-25
2023/12/16 05:23:40;;;;;;;2.85;1.27;;;;;;;;;;5074239;28;20049;-27
2023/12/16 05:26:07;;;;;;;2.88;1.40;;;19.70;62.80;;;;;;5074013;28;20098;-25
2023/12/16 05:28:34;;;;;;;3.33;1.27;;;;;;;;;;5074201;28;20044;-27
2023/12/16 05:31:01;;;;;;;3.45;1.40;;;19.60;68.60;;;;;;5073572;28;20048;-25
2023/12/16 05:33:29;;;;;;;3.45;1.40;;;19.70;68.70;;;;;;5074013;28;20583;-25
2023/12/16 05:35:56;;;;;;;2.33;1.30;;;;;;;;;;5055509;28;20402;-27
2023/12/16 05:38:24;;;;;;;2.55;1.10;;;20.80;68.90;;;;;;5073990;28;20044;-25
2023/12/16 05:40:52;;;;;;;4.18;1.50;;;19.70;65.50;;;;;;5073552;28;20122;-26
2023/12/16 05:43:19;;;;;;;3.15;1.52;;;19.50;55.60;;;;;;5073788;28;20090;-25
2023/12/16 05:45:46;;;;;;;1.90;1.27;;;19.60;68.30;;;;;;5073744;28;20473;-25
2023/12/16 05:48:13;;;;;;;2.70;1.40;;;19.60;53.20;;;;;;5073883;28;20516;-26
2023/12/16 05:50:41;;;;;;;2.83;1.40;;;19.90;49.10;;;;;;5072241;28;20555;-26
2023/12/16 05:53:08;;;;;;;3.35;1.50;;;19.50;68.50;;;;;;5073825;28;20390;-26
2023/12/16 05:55:35;;;;;;;4.25;1.85;;;;;;;;;;5066790;28;20444;-27
2023/12/16 05:58:02;;;;;;;3.97;1.60;;;19.70;68.50;;;;;;5053710;28;20456;-25
2023/12/16 06:00:29;;;;;;;3.97;1.40;;;;;;;;;;5053330;28;20049;-27
2023/12/16 06:02:56;;;;;;;3.08;1.50;;;;;;;;;;5053508;28;20045;-25
2023/12/16 06:05:24;;;;;;;2.92;1.38;;;;;;;;;;5058808;28;20098;-26
2023/12/16 06:07:52;;;;;;;3.47;1.58;;;18.70;68.00;;;;;;5062237;28;20053;-25
2023/12/16 06:10:19;;;;;;;2.65;1.40;;;19.60;68.50;;;;;;5053028;28;20494;-25
2023/12/16 06:12:46;;;;;;;2.15;1.30;;;19.60;56.60;;;;;;5053112;28;20553;-25
2023/12/16 06:15:13;;;;;;;3.70;1.58;;;;;;;;;;5053148;28;20048;-24
2023/12/16 06:17:40;;;;;;;3.90;1.70;;;20.00;68.70;;;;;;5053058;28;20107;-29
2023/12/16 06:20:08;;;;;;;3.28;1.40;;;19.80;48.40;;;;;;5053125;28;20078;-24
2023/12/16 06:22:35;;;;;;;3.10;1.48;;;20.20;68.60;;;;;;5053358;28;20456;-29
2023/12/16 06:25:03;;;;;;;2.85;1.42;;;19.00;48.30;;;;;;5059949;28;20459;-27
2023/12/16 06:27:31;;;;;;;4.18;1.50;;;19.80;68.60;;;;;;5073176;28;20048;-28
2023/12/16 06:29:58;;;;;;;3.83;1.30;;;21.10;49.10;;;;;;5072713;28;20551;-29
2023/12/16 06:32:25;;;;;;;3.05;1.30;;;19.40;68.50;;;;;;5072864;28;20378;-28
2023/12/16 06:34:52;;;;;;;3.55;1.65;;;;;;;;;;5072670;28;20550;-31
2023/12/16 06:37:19;;;;;;;3.08;1.40;;;19.10;68.20;;;;;;5072202;28;20497;-34
2023/12/16 06:39:46;;;;;;;3.28;1.50;;;20.30;53.00;;;;;;5072607;28;20048;-30
2023/12/16 06:42:14;;;;;;;2.78;1.50;;;19.40;63.20;;;;;;5066712;28;20509;-28
2023/12/16 06:44:42;;;;;;;3.88;1.50;;;;;;;;;;5072645;28;20090;-29
2023/12/16 06:47:09;;;;;;;2.45;1.60;;;19.80;66.00;;;;;;5072326;28;20048;-27
2023/12/16 06:49:36;;;;;;;6.53;1.60;;;19.80;68.50;;;;;;5072845;28;20048;-29
2023/12/16 06:52:03;;;;;;;3.72;1.40;;;19.40;48.00;;;;;;5065860;28;20083;-25
2023/12/16 06:54:29;;;;;;;3.28;1.55;;;19.90;68.10;;;;;;5063929;28;20040;-25
2023/12/16 06:56:56;;;;;;;3.78;1.77;;;19.20;67.90;;;;;;5070698;28;20095;-25
2023/12/16 06:59:24;;;;;;;2.90;1.50;;;19.80;48.20;;;;;;5052518;28;20049;-25
2023/12/16 07:01:51;;;;;;;3.15;1.60;;;19.60;68.30;;;;;;5052449;28;20045;-23
2023/12/16 07:04:18;;;;;;;2.83;1.50;;;20.40;68.70;;;;;;5052248;28;20053;-25
2023/12/16 07:06:45;;;;;;;2.97;1.50;;;18.90;49.20;;;;;;5068542;28;20049;-26
2023/12/16 07:09:12;;;;;;;4.15;1.52;;;21.20;68.70;;;;;;5072310;28;20098;-25
2023/12/16 07:11:40;;;;;;;3.35;1.50;;;;;;;;;;5071910;28;20519;-26
2023/12/16 07:14:08;;;;;;;3.95;1.60;;;;;;;;;;5070118;28;20127;-25
2023/12/16 07:16:36;;;;;;;3.10;1.52;;;19.90;48.20;;;;;;5065786;28;20083;-25
2023/12/16 07:19:03;;;;;;;2.65;1.45;;;20.20;49.90;;;;;;5072004;28;20048;-26
2023/12/16 07:21:30;;;;;;;3.70;1.48;;;19.70;68.30;;;;;;5071860;28;20079;-24
2023/12/16 07:23:57;;;;;;;3.10;1.50;;;19.40;67.70;;;;;;5072239;28;20441;-23
2023/12/16 07:26:24;;;;;;;3.78;1.70;;;20.20;68.20;;;;;;5071516;28;20440;-29
2023/12/16 07:28:51;;;;;;;3.67;1.65;;;19.90;68.00;;;;;;5072012;28;20094;-29
2023/12/16 07:31:18;;;;;;;3.65;1.52;;;;;;;;;;5068486;28;20040;-29
2023/12/16 07:33:46;;;;;;;2.88;1.42;;;19.10;67.50;;;;;;5051575;28;20091;-25
2023/12/16 07:36:13;;;;;;;4.38;1.60;;;20.00;60.90;;;;;;5054191;28;20094;-25
2023/12/16 07:38:40;;;;;;;3.65;1.67;;;;;;;;;;5071858;28;20052;-26
2023/12/16 07:41:07;;;;;;;3.30;1.45;;;20.70;68.30;;;;;;5071590;28;20102;-25
2023/12/16 07:43:34;;;;;;;3.67;1.70;;;;;;;;;;5071619;28;20048;-25
2023/12/16 07:46:03;;;;;;;2.97;1.60;;;19.50;68.20;;;;;;5071607;28;20105;-24
2023/12/16 07:48:30;;;;;;;2.85;1.50;;;20.40;51.50;;;;;;5069778;28;20123;-25
2023/12/16 07:50:58;;;;;;;3.03;1.50;;;20.40;63.00;;;;;;5071266;28;20558;-25
2023/12/16 07:53:25;;;;;;;2.97;1.50;;;20.90;52.00;;;;;;5071892;28;20387;-25
2023/12/16 07:55:52;;;;;;;2.42;1.40;;;20.40;68.60;;;;;;5071192;28;20497;-25
2023/12/16 07:58:19;;;;;;;4.53;2.00;;;;;;;;;;5070553;28;20529;-25
2023/12/16 08:00:46;;;;;;;3.75;1.77;;;21.00;68.50;;;;;;5070889;28;20486;-25
2023/12/16 08:03:13;;;;;;;1.92;1.40;;;;;;;;;;5071523;28;20509;-29
2023/12/16 08:05:41;;;;;;;3.05;1.50;;;;;;;;;;5063442;28;20552;-30
2023/12/16 08:08:09;;;;;;;3.10;1.52;;;21.10;68.60;;;;;;5059285;28;20502;-30
2023/12/16 08:10:36;;;;;;;3.05;1.58;;;;;;;;;;5060483;28;20463;-30
2023/12/16 08:13:03;;;;;;;3.10;1.67;;;20.40;54.60;;;;;;5058425;28;20114;-25
2023/12/16 08:15:30;;;;;;;3.60;1.60;;;19.00;67.30;;;;;;5061044;28;20441;-26
2023/12/16 08:17:57;;;;;;;3.80;1.70;;;;;;;;;;5053407;28;20111;-26
2023/12/16 08:20:24;;;;;;;4.07;1.80;;;19.70;67.80;;;;;;5055316;28;20497;-29
2023/12/16 08:22:51;;;;;;;3.03;1.58;;;20.90;68.70;;;;;;5051358;28;20106;-26
2023/12/16 08:25:19;;;;;;;4.05;1.60;;;20.80;62.00;;;;;;5051542;28;20049;-24
2023/12/16 08:27:46;;;;;;;5.43;1.88;;;19.80;67.90;;;;;;5051225;28;20045;-24
2023/12/16 08:30:14;;;;;;;3.03;1.55;;;20.00;48.10;;;;;;5050564;28;20106;-26
2023/12/16 08:32:41;;;;;;;2.67;1.45;;;19.80;67.90;;;;;;5051258;28;20052;-25
2023/12/16 08:35:08;;;;;;;2.38;1.33;;;20.00;48.20;;;;;;5050699;28;20045;-28
2023/12/16 08:37:36;;;;;;;4.93;1.75;;;19.00;67.40;;;;;;5050941;28;20048;-24
2023/12/16 08:40:04;;;;;;;3.15;1.30;;;20.10;48.20;;;;;;5050771;28;20407;-26
2023/12/16 08:42:32;;;;;;;3.05;1.58;;;20.20;68.00;;;;;;5050873;28;20494;-27
2023/12/16 08:44:59;;;;;;;4.68;1.60;;;19.80;68.10;;;;;;5051070;28;20058;-24
2023/12/16 08:47:25;;;;;;;4.82;1.70;;;20.00;67.80;;;;;;5051017;28;20526;-23
2023/12/16 08:49:52;;;;;;;3.83;1.50;;;20.10;57.90;;;;;;5050621;28;20517;-25
2023/12/16 08:52:19;;;;;;;3.88;1.90;;;20.90;68.50;;;;;;5050463;28;20099;-30
2023/12/16 08:54:46;;;;;;;3.25;1.58;;;;;;;;;;5051195;28;20045;-26
2023/12/16 08:57:13;;;;;;;3.00;1.67;;;20.20;67.70;;;;;;5050705;28;20049;-27
2023/12/16 08:59:42;;;;;;;4.00;1.60;;;20.30;49.30;;;;;;5051068;28;20056;-26
2023/12/16 09:02:09;;;;;;;4.32;1.80;;;21.30;55.60;;;;;;5049910;28;20045;-25
2023/12/16 09:04:35;;;;;;;4.30;1.85;;;20.40;67.80;;;;;;5050574;28;20048;-29
2023/12/16 09:07:02;;;;;;;4.45;1.70;;;19.90;67.60;;;;;;5050939;28;20048;-32
2023/12/16 09:09:29;;;;;;;4.47;2.30;;;19.60;67.00;;;;;;5051951;28;20052;-28
2023/12/16 09:11:56;;;;;;;5.00;2.13;;;20.50;67.80;;;;;;5053745;28;20052;-27
2023/12/16 09:14:23;;;;;;;4.18;1.70;;;20.50;49.60;;;;;;5055787;28;20091;-26
2023/12/16 09:16:51;;;;;;;2.60;1.50;;;21.60;67.90;;;;;;5060117;28;20120;-26
2023/12/16 09:19:18;;;;;;;3.88;1.83;;;20.60;67.60;;;;;;5059026;28;20048;-28
2023/12/16 09:21:45;;;;;;;4.78;1.90;;;;;;;;;;5054296;28;20106;-26
2023/12/16 09:24:12;;;;;;;4.22;1.88;;;20.40;67.40;;;;;;5060010;28;20053;-27
2023/12/16 09:26:39;;;;;;;4.20;1.88;;;20.90;67.10;;;;;;5065107;28;20045;-28
2023/12/16 09:29:06;;;;;;;4.07;1.85;;;20.90;67.40;;;;;;5061548;28;20049;-26
2023/12/16 09:31:33;;;;;;;3.50;1.75;;;;;;;;;;5061962;28;20045;-26
2023/12/16 09:34:02;;;;;;;4.40;1.88;;;20.90;62.00;;;;;;5060587;28;20053;-23
2023/12/16 09:36:29;;;;;;;3.13;1.63;;;21.80;67.20;;;;;;5061527;28;20053;-24
2023/12/16 09:38:56;;;;;;;4.38;1.73;;;20.90;56.20;;;;;;5064388;28;20045;-27
2023/12/16 09:41:24;;;;;;;3.88;1.80;;;20.60;66.40;;;;;;5060846;28;20056;-29
2023/12/16 09:43:52;;;;;;;5.38;1.80;;;22.20;67.60;;;;;;5063498;28;20460;-31
2023/12/16 09:46:20;;;;;;;3.97;1.85;;;21.20;67.20;;;;;;5064096;28;20076;-25
2023/12/16 09:48:46;;;;;;;4.78;1.75;;;20.10;66.30;;;;;;5053849;28;20045;-24
2023/12/16 09:51:15;;;;;;;3.38;1.80;;;22.40;67.40;;;;;;5053642;28;20091;-31
2023/12/16 09:53:41;;;;;;;4.07;1.60;;;21.00;66.80;;;;;;5053506;28;20057;-30
2023/12/16 09:56:10;;;;;;;5.22;1.83;;;21.10;55.70;;;;;;5053683;28;20045;-27
2023/12/16 09:58:37;;;;;;;3.30;1.70;;;21.30;66.80;;;;;;5053353;28;20098;-30
2023/12/16 10:01:04;;;;;;;3.90;2.00;;;21.30;67.20;;;;;;5053465;28;20099;-28
2023/12/16 10:03:31;;;;;;;6.28;2.00;;;21.10;66.70;;;;;;5053576;28;20049;-27
2023/12/16 10:05:58;;;;;;;6.95;1.90;;;21.20;56.00;;;;;;5053611;28;20049;-27
2023/12/16 10:08:26;;;;;;;2.90;1.80;;;21.30;57.40;;;;;;5053017;28;20486;-25
2023/12/16 10:10:58;;;;;;;5.78;2.13;;;21.10;54.30;;;;;;5052120;28;20060;-25
2023/12/16 10:13:25;;;;;;;4.47;1.88;;;21.30;63.30;;;;;;5061134;28;20100;-30
2023/12/16 10:15:52;;;;;;;4.63;2.13;;;22.30;67.10;;;;;;5059938;28;20056;-32
2023/12/16 10:18:19;;;;;;;4.22;2.10;;;21.80;53.10;;;;;;5063016;28;20452;-27
2023/12/16 10:20:46;;;;;;;4.32;1.90;;;21.20;66.90;;;;;;5060372;28;20053;-27
2023/12/16 10:23:13;;;;;;;4.13;1.90;;;21.40;47.20;;;;;;5061986;28;20107;-27
2023/12/16 10:25:41;;;;;;;3.42;1.83;;;21.60;67.00;;;;;;5058291;28;20045;-29
2023/12/16 10:28:08;;;;;;;3.70;1.77;;;21.20;66.30;;;;;;5063025;28;20568;-25
2023/12/16 10:30:35;;;;;;;4.18;1.92;;;;;;;;;;5061631;28;20044;-27
2023/12/16 10:33:03;;;;;;;3.55;1.77;;;21.50;66.80;;;;;;5063308;28;20090;-27
2023/12/16 10:35:30;;;;;;;3.95;1.83;;;21.40;66.60;;;;;;5060913;28;20056;-29
2023/12/16 10:37:57;;;;;;;3.83;1.77;;;;;;;;;;5053903;28;20049;-26
2023/12/16 10:40:24;;;;;;;4.60;1.90;;;22.40;66.70;;;;;;5058250;28;20091;-25
2023/12/16 10:42:53;;;;;;;4.95;1.80;;;21.60;47.10;;;;;;5062362;28;20383;-26
2023/12/16 10:45:20;;;;;;;5.68;2.13;;;21.60;48.50;;;;;;5063158;28;20052;-26
2023/12/16 10:47:48;;;;;;;3.30;1.80;;;21.00;66.10;;;;;;5060361;28;20098;-25
2023/12/16 10:50:15;;;;;;;3.80;2.17;;;;;;;;;;5059729;28;20433;-26
2023/12/16 10:52:44;;;;;;;5.82;1.95;;;20.50;49.90;;;;;;5037942;28;20450;-26
2023/12/16 10:55:14;;;;;;;3.17;1.88;;;21.60;65.90;;;;;;5052302;28;20075;-31
2023/12/16 10:57:47;;;;;;;3.53;1.77;;;21.70;66.30;;;;;;5052762;28;20072;-30
2023/12/16 11:00:20;;;;;;;4.30;1.98;;;21.70;47.00;;;;;;5062785;28;20048;-26
2023/12/16 11:02:51;;;;;;;4.38;1.92;;;20.70;65.50;;;;;;5053318;28;20079;-30
2023/12/16 11:05:20;;;;;;;4.40;2.00;;;21.80;47.00;;;;;;5054378;28;20456;-29
2023/12/16 11:07:48;;;;;;;5.13;2.05;;;21.50;66.20;;;;;;5052455;28;20099;-29
2023/12/16 11:10:15;;;;;;;3.25;1.98;;;21.60;59.40;;;;;;5052170;28;20056;-25
2023/12/16 11:12:42;;;;;;;4.20;2.00;;;21.80;66.30;;;;;;5051978;28;20087;-29
2023/12/16 11:15:09;;;;;;;5.20;1.92;;;;;;;;;;5057434;28;20098;-25
2023/12/16 11:17:47;;;;;;;3.70;1.85;;;21.80;66.40;;;;;;5061010;28;20560;-28
2023/12/16 11:20:17;;;;;;;4.65;2.50;;;21.80;51.50;;;;;;5060999;28;20406;-25
2023/12/16 11:22:49;;;;;;;3.63;1.70;;;21.60;66.00;;;;;;5068896;28;20094;-25
2023/12/16 11:25:20;;;;;;;5.50;2.00;;;21.70;46.80;;;;;;5051356;28;20053;-25
2023/12/16 11:27:47;;;;;;;3.92;1.98;;;21.70;46.90;;;;;;5068533;28;21449;-26
2023/12/16 11:30:15;;;;;;;4.80;1.70;;;22.20;57.50;;;;;;5066253;28;20080;-25
2023/12/16 11:32:52;;;;;;;4.32;1.85;;;21.70;66.40;;;;;;5067899;28;20045;-23
2023/12/16 11:35:42;;;;;;;4.38;2.22;;;21.60;66.30;;;;;;5052034;28;20103;-26
2023/12/16 11:38:09;;;;;;;5.70;2.20;;;21.40;49.50;;;;;;5059580;28;20041;-27
2023/12/16 11:40:40;;;;;;;4.05;2.03;;;21.50;46.90;;;;;;5063134;28;20048;-24
2023/12/16 11:43:07;;;;;;;3.75;1.83;;;21.80;66.60;;;;;;5071685;28;20053;-27
2023/12/16 11:45:37;;;;;;;4.82;2.30;;;22.40;57.30;;;;;;5071395;28;20493;-27
2023/12/16 11:48:06;;;;;;;4.63;2.05;;;21.40;66.10;;;;;;5071703;28;20106;-24
2023/12/16 11:50:34;;;;;;;5.13;2.30;;;;;;;;;;5071592;28;20093;-30
2023/12/16 11:53:01;;;;;;;4.50;2.20;;;21.30;66.10;;;;;;5071203;28;20052;-25
2023/12/16 11:55:28;;;;;;;4.22;1.98;;;;;;;;;;5071652;28;20056;-26
2023/12/16 11:57:55;;;;;;;3.22;1.88;;;22.20;66.70;;;;;;5071487;28;20049;-25
2023/12/16 12:00:22;;;;;;;3.88;1.90;;;;;;;;;;5071512;28;20104;-25
2023/12/16 12:02:49;;;;;;;4.93;1.90;;;21.30;66.60;;;;;;5070744;28;20098;-30
2023/12/16 12:05:17;;;;;;;3.15;1.80;;;21.30;47.00;;;;;;5067249;28;20498;-27
2023/12/16 12:07:44;;;;;;;4.30;2.22;;;;;;;;;;5051409;28;20045;-26
2023/12/16 12:10:11;;;;;;;4.65;2.17;;;20.30;66.30;;;;;;5051282;28;20091;-32
2023/12/16 12:12:39;;;;;;;3.97;2.05;;;;;;;;;;5051337;28;20094;-28
2023/12/16 12:15:07;;;;;;;3.47;1.90;;;21.70;67.00;;;;;;5051534;28;20147;-30
2023/12/16 12:17:35;;;;;;;3.55;2.08;;;;;;;;;;5056437;28;20108;-26
2023/12/16 12:20:01;;;;;;;4.60;2.13;;;21.40;66.70;;;;;;5061939;28;20049;-23
2023/12/16 12:22:30;;;;;;;4.00;1.92;;;21.10;47.10;;;;;;5070687;28;20056;-26
2023/12/16 12:24:57;;;;;;;4.13;1.85;;;21.50;66.70;;;;;;5071129;28;20086;-25
2023/12/16 12:27:24;;;;;;;3.42;2.10;;;21.10;67.10;;;;;;5071191;28;20072;-24
2023/12/16 12:29:55;;;;;;;3.80;1.98;;;20.90;59.20;;;;;;5060270;28;20095;-26
2023/12/16 12:32:22;;;;;;;4.10;2.08;;;20.80;62.00;;;;;;5050852;28;20049;-24
2023/12/16 12:34:58;;;;;;;4.90;2.17;;;21.90;67.20;;;;;;5052184;28;20413;-24
2023/12/16 12:37:25;;;;;;;4.15;2.05;;;;;;;;;;5049873;28;20064;-26
2023/12/16 12:39:55;;;;;;;3.95;2.10;;;19.90;66.40;;;;;;5050540;28;20053;-24
2023/12/16 12:42:22;;;;;;;3.35;2.03;;;20.50;66.80;;;;;;5049573;28;20037;-27
2023/12/16 12:44:53;;;;;;;2.75;1.90;;;21.20;67.70;;;;;;5052604;28;20059;-29
2023/12/16 12:47:29;;;;;;;4.60;2.08;;;20.10;63.00;;;;;;5054385;28;20337;-30
2023/12/16 12:49:56;;;;;;;3.80;2.25;;;20.50;67.20;;;;;;5054512;28;20098;-24
2023/12/16 12:52:35;;;;;;;3.97;1.98;;;20.20;48.70;;;;;;5056350;28;20072;-25
2023/12/16 12:55:04;;;;;;;5.07;2.10;;;20.40;47.70;;;;;;5054430;28;20457;-27
2023/12/16 12:57:31;;;;;;;3.67;1.95;;;20.30;67.60;;;;;;5054169;28;20052;-30
2023/12/16 13:00:00;;;;;;;3.65;2.15;;;20.10;55.40;;;;;;5054486;28;20045;-25
2023/12/16 13:02:27;;;;;;;2.90;1.83;;;20.20;67.90;;;;;;5054059;28;20099;-27
2023/12/16 13:04:54;;;;;;;4.82;2.00;;;19.90;56.40;;;;;;5057322;28;20048;-27
2023/12/16 13:07:21;;;;;;;3.33;1.92;;;20.00;67.90;;;;;;5066835;28;20044;-29
2023/12/16 13:09:48;;;;;;;3.25;1.77;;;;;;;;;;5053950;28;20060;-26